Watson Lake, Canada
Current Conditions -  °F | °C
As of 6:00 PM on Thursday 20 Nov 2014 (Local Time) from CYQH Reporting Station
Overcast Overcast  
Wind Chill: 21°   Ceiling: 2000
Heat Index: 21°   Visibility: 15mi
Dew Point: 19°   Wind: 2mph
Humidity: 93%   Direction: 250°WSW
Pressure: 29.52"   Gusts: NA
Location:  60.06°N, 128.71°W
Report Text: CYQH 210200Z 25002KT 15SM OVC020 M06/M07 A2952 RMK SC7 SLP039
Loading
Personal Weather Stations






























Interactive Weather Map New forecast layout! Learn more

10-Day Weather Forecast

Advertisements
Track Severe Weather on mobile